createdAt,value
2023-05-13T00:00:29.868Z,9.90
2023-05-13T00:02:57.999Z,9.90
2023-05-13T00:05:26.135Z,9.90
2023-05-13T00:07:54.156Z,9.90
2023-05-13T00:14:39.551Z,9.90
2023-05-13T00:17:07.673Z,9.90
2023-05-13T00:19:35.776Z,9.90
2023-05-13T00:22:03.921Z,9.90
2023-05-13T00:24:32.103Z,9.90
2023-05-13T00:27:00.191Z,9.80
2023-05-13T00:29:28.217Z,9.80
2023-05-13T00:31:56.376Z,9.80
2023-05-13T00:34:24.421Z,9.80
2023-05-13T00:36:52.518Z,9.80
2023-05-13T00:39:20.549Z,9.80
2023-05-13T00:41:48.657Z,9.70
2023-05-13T00:44:16.781Z,9.70
2023-05-13T00:46:45.082Z,9.70
2023-05-13T00:49:13.141Z,9.70
2023-05-13T00:51:41.201Z,9.60
2023-05-13T00:54:09.257Z,9.50
2023-05-13T00:56:39.126Z,9.50
2023-05-13T00:59:07.232Z,9.50
2023-05-13T01:01:47.492Z,9.50
2023-05-13T01:04:34.201Z,9.50
2023-05-13T01:07:21.178Z,9.40
2023-05-13T01:09:56.585Z,9.40
2023-05-13T01:12:30.961Z,9.40
2023-05-13T01:15:10.228Z,9.40
2023-05-13T01:17:55.855Z,9.40
2023-05-13T01:20:28.217Z,9.30
2023-05-13T01:22:57.899Z,9.30
2023-05-13T01:25:27.040Z,9.30
2023-05-13T01:27:55.202Z,9.30
2023-05-13T01:30:27.718Z,9.30
2023-05-13T01:32:55.946Z,9.20
2023-05-13T01:35:24.494Z,9.20
2023-05-13T01:37:52.846Z,9.20
2023-05-13T01:40:31.842Z,9.20
2023-05-13T01:43:06.449Z,9.20
2023-05-13T01:45:34.965Z,9.10
2023-05-13T01:48:03.258Z,9.20
2023-05-13T01:50:41.308Z,9.20
2023-05-13T01:53:09.997Z,9.20
2023-05-13T01:55:39.912Z,9.20
2023-05-13T01:58:08.402Z,9.20
2023-05-13T02:00:36.557Z,9.30
2023-05-13T02:03:04.763Z,9.30
2023-05-13T02:05:34.433Z,9.20
2023-05-13T02:08:12.752Z,9.20
2023-05-13T02:10:40.962Z,9.10
2023-05-13T02:13:08.998Z,9.10
2023-05-13T02:15:37.112Z,9.20
2023-05-13T02:18:06.305Z,9.20
2023-05-13T02:20:34.480Z,9.10
2023-05-13T02:23:02.593Z,9.10
2023-05-13T02:25:30.681Z,9.00
2023-05-13T02:28:00.928Z,9.00
2023-05-13T02:30:29.221Z,9.00
2023-05-13T02:32:58.026Z,9.00
2023-05-13T02:35:30.852Z,9.00
2023-05-13T02:38:01.176Z,9.10
2023-05-13T02:40:30.077Z,9.10
2023-05-13T02:42:59.175Z,9.10
2023-05-13T02:45:42.170Z,9.10
2023-05-13T02:48:12.496Z,9.10
2023-05-13T02:50:41.809Z,9.10
2023-05-13T02:53:11.752Z,9.00
2023-05-13T02:55:44.986Z,9.00
2023-05-13T02:58:13.084Z,9.00
2023-05-13T03:00:41.150Z,8.80
2023-05-13T03:03:12.286Z,8.80
2023-05-13T03:05:40.417Z,8.70
2023-05-13T03:08:09.774Z,8.60
2023-05-13T03:10:42.193Z,8.70
2023-05-13T03:13:10.329Z,8.60
2023-05-13T03:15:38.426Z,8.60
2023-05-13T03:18:06.726Z,8.60
2023-05-13T03:20:35.048Z,8.60
2023-05-13T03:23:04.714Z,8.60
2023-05-13T03:25:34.180Z,8.60
2023-05-13T03:32:10.078Z,8.70
2023-05-13T03:34:39.185Z,8.70
2023-05-13T03:37:08.032Z,8.80
2023-05-13T03:39:36.171Z,8.80
2023-05-13T03:42:04.383Z,8.90
2023-05-13T03:44:32.556Z,8.90
2023-05-13T03:47:00.661Z,8.90
2023-05-13T03:49:28.951Z,8.90
2023-05-13T03:51:58.583Z,8.90
2023-05-13T03:54:26.802Z,8.90
2023-05-13T03:56:54.827Z,8.90
2023-05-13T03:59:22.835Z,8.80
2023-05-13T04:01:50.894Z,8.80
2023-05-13T04:04:18.956Z,8.80
2023-05-13T04:06:47.212Z,8.70
2023-05-13T04:09:15.279Z,8.70
2023-05-13T04:11:43.648Z,8.70
2023-05-13T04:14:11.743Z,8.70
2023-05-13T04:16:42.852Z,8.70
2023-05-13T04:19:11.006Z,8.80
2023-05-13T04:21:39.979Z,8.80
2023-05-13T04:24:10.343Z,8.90
2023-05-13T04:26:39.243Z,9.00
2023-05-13T04:29:07.451Z,9.10
2023-05-13T04:31:35.612Z,9.20
2023-05-13T04:34:04.031Z,9.20
2023-05-13T04:36:32.585Z,9.30
2023-05-13T04:39:01.667Z,9.40
2023-05-13T04:41:29.781Z,9.50
2023-05-13T04:43:58.122Z,9.60
2023-05-13T04:46:27.363Z,9.70
2023-05-13T04:48:55.486Z,9.80
2023-05-13T04:51:23.834Z,9.90
2023-05-13T04:53:53.035Z,9.90
2023-05-13T04:56:22.130Z,10.00
2023-05-13T04:58:50.585Z,10.10
2023-05-13T05:01:19.180Z,10.10
2023-05-13T05:03:47.725Z,10.20
2023-05-13T05:06:15.852Z,10.20
2023-05-13T05:08:44.778Z,10.30
2023-05-13T05:11:12.981Z,10.40
2023-05-13T05:13:42.348Z,10.40
2023-05-13T05:16:11.128Z,10.50
2023-05-13T05:18:42.406Z,10.50
2023-05-13T05:21:11.317Z,10.60
2023-05-13T05:23:39.370Z,10.60
2023-05-13T05:26:11.859Z,10.70
2023-05-13T05:28:43.813Z,10.80
2023-05-13T05:31:13.623Z,10.80
2023-05-13T05:33:41.958Z,10.90
2023-05-13T05:36:10.888Z,10.90
2023-05-13T05:38:39.973Z,10.90
2023-05-13T05:41:08.925Z,11.00
2023-05-13T05:43:37.341Z,11.00
2023-05-13T05:46:08.699Z,11.10
2023-05-13T05:48:44.679Z,11.20
2023-05-13T05:51:13.142Z,11.20
2023-05-13T05:53:42.271Z,11.30
2023-05-13T05:56:12.778Z,11.40
2023-05-13T05:58:40.856Z,11.40
2023-05-13T06:01:09.432Z,11.40
2023-05-13T06:03:37.559Z,11.50
2023-05-13T06:06:05.913Z,11.60
2023-05-13T06:08:34.901Z,11.60
2023-05-13T06:11:03.178Z,11.70
2023-05-13T06:13:31.318Z,11.70
2023-05-13T06:15:59.438Z,11.80
2023-05-13T06:18:27.936Z,11.90
2023-05-13T06:20:56.013Z,12.00
2023-05-13T06:23:24.118Z,12.20
2023-05-13T06:25:53.070Z,12.20
2023-05-13T06:28:21.238Z,12.30
2023-05-13T06:30:52.045Z,12.50
2023-05-13T06:33:20.239Z,12.60
2023-05-13T06:35:50.820Z,12.60
2023-05-13T06:38:21.962Z,12.80
2023-05-13T06:40:52.294Z,12.90
2023-05-13T06:43:27.487Z,13.00
2023-05-13T06:45:59.064Z,13.00
2023-05-13T06:48:29.440Z,13.00
2023-05-13T06:50:58.277Z,13.10
2023-05-13T06:53:26.329Z,13.10
2023-05-13T06:55:54.351Z,13.20
2023-05-13T06:58:22.515Z,13.30
2023-05-13T07:00:51.944Z,13.40
2023-05-13T07:03:23.082Z,13.40
2023-05-13T07:05:51.256Z,13.50
2023-05-13T07:08:20.217Z,13.50
2023-05-13T07:10:48.375Z,13.60
2023-05-13T07:13:16.622Z,13.70
2023-05-13T07:15:44.734Z,13.60
2023-05-13T07:18:12.985Z,13.70
2023-05-13T07:20:41.209Z,13.70
2023-05-13T07:23:09.361Z,13.70
2023-05-13T07:25:37.416Z,13.70
2023-05-13T07:28:05.766Z,13.80
2023-05-13T07:30:33.902Z,13.90
2023-05-13T07:33:02.102Z,13.90
2023-05-13T07:35:30.282Z,13.90
2023-05-13T07:37:58.336Z,13.80
2023-05-13T07:40:26.410Z,13.80
2023-05-13T07:42:54.661Z,13.80
2023-05-13T07:45:23.463Z,13.90
2023-05-13T07:47:51.807Z,13.80
2023-05-13T07:50:19.961Z,13.80
2023-05-13T07:52:50.385Z,13.90
2023-05-13T07:55:19.006Z,14.00
2023-05-13T07:57:47.187Z,14.00
2023-05-13T08:00:15.609Z,14.10
2023-05-13T08:02:45.135Z,14.00
2023-05-13T08:05:13.578Z,14.00
2023-05-13T08:07:41.782Z,13.90
2023-05-13T08:10:09.823Z,13.90
2023-05-13T08:12:37.962Z,13.90
2023-05-13T08:15:06.409Z,13.90
2023-05-13T08:17:35.090Z,14.00
2023-05-13T08:20:03.960Z,14.10
2023-05-13T08:22:32.241Z,14.10
2023-05-13T08:25:02.236Z,14.00
2023-05-13T08:27:30.530Z,14.10
2023-05-13T08:29:58.928Z,14.20
2023-05-13T08:32:27.064Z,14.10
2023-05-13T08:34:55.445Z,14.20
2023-05-13T08:37:23.589Z,14.30
2023-05-13T08:39:51.665Z,14.40
2023-05-13T08:42:23.037Z,14.50
2023-05-13T08:44:53.343Z,14.60
2023-05-13T08:47:40.197Z,14.50
2023-05-13T08:50:08.588Z,14.50
2023-05-13T08:52:36.627Z,14.40
2023-05-13T08:55:05.325Z,14.30
2023-05-13T08:57:33.652Z,14.30
2023-05-13T09:00:02.005Z,14.40
2023-05-13T09:02:30.352Z,14.30
2023-05-13T09:05:01.447Z,14.30
2023-05-13T09:07:31.919Z,14.30
2023-05-13T09:10:00.197Z,14.40
2023-05-13T09:12:47.141Z,14.40
2023-05-13T09:15:16.272Z,14.50
2023-05-13T09:17:46.682Z,14.60
2023-05-13T09:20:16.563Z,14.70
2023-05-13T09:22:49.383Z,14.70
2023-05-13T09:25:18.407Z,14.70
2023-05-13T09:27:54.035Z,14.70
2023-05-13T09:30:53.380Z,14.70
2023-05-13T09:33:21.424Z,14.70
2023-05-13T09:35:53.896Z,14.60
2023-05-13T09:38:23.023Z,14.60
2023-05-13T09:40:54.903Z,14.60
2023-05-13T09:43:27.331Z,14.60
2023-05-13T09:45:56.326Z,14.60
2023-05-13T09:48:26.056Z,14.60
2023-05-13T09:50:54.963Z,14.60
2023-05-13T09:53:23.127Z,14.50
2023-05-13T09:55:54.980Z,14.50
2023-05-13T09:58:23.832Z,14.50
2023-05-13T10:00:52.455Z,14.50
2023-05-13T10:03:23.806Z,14.50
2023-05-13T10:05:54.817Z,14.50
2023-05-13T10:08:23.514Z,14.50
2023-05-13T10:10:56.827Z,14.60
2023-05-13T10:13:25.990Z,14.70
2023-05-13T10:15:55.421Z,14.80
2023-05-13T10:18:25.271Z,14.80
2023-05-13T10:20:56.184Z,14.80
2023-05-13T10:23:25.285Z,14.70
2023-05-13T10:25:54.822Z,14.70
2023-05-13T10:28:23.585Z,14.60
2023-05-13T10:30:52.837Z,14.60
2023-05-13T10:33:21.461Z,14.50
2023-05-13T10:35:55.493Z,14.60
2023-05-13T10:38:39.406Z,14.70
2023-05-13T10:41:13.240Z,14.70
2023-05-13T10:43:41.507Z,14.90
2023-05-13T10:46:14.947Z,14.90
2023-05-13T10:48:51.037Z,14.90
2023-05-13T10:51:19.806Z,14.80
2023-05-13T10:53:50.015Z,14.80
2023-05-13T10:56:21.298Z,14.80
2023-05-13T10:58:59.471Z,14.90
2023-05-13T11:01:31.991Z,15.00
2023-05-13T11:04:07.200Z,15.10
2023-05-13T11:06:39.279Z,15.30
2023-05-13T11:09:08.358Z,15.50
2023-05-13T11:11:36.982Z,15.60
2023-05-13T11:14:20.688Z,15.80
2023-05-13T11:16:58.199Z,15.90
2023-05-13T11:19:48.470Z,15.90
2023-05-13T11:22:19.661Z,15.70
2023-05-13T11:25:08.091Z,15.70
2023-05-13T11:27:40.148Z,15.60
2023-05-13T11:30:09.217Z,15.80
2023-05-13T11:32:52.697Z,15.80
2023-05-13T11:35:28.566Z,15.70
2023-05-13T11:37:59.122Z,15.50
2023-05-13T11:40:29.651Z,15.30
2023-05-13T11:42:58.051Z,15.20
2023-05-13T11:45:26.708Z,15.20
2023-05-13T11:47:55.348Z,15.20
2023-05-13T11:50:23.423Z,15.10
2023-05-13T11:52:53.037Z,15.10
2023-05-13T11:55:31.421Z,15.10
2023-05-13T11:58:00.074Z,15.10
2023-05-13T12:00:29.180Z,15.10
2023-05-13T12:02:57.691Z,15.10
2023-05-13T12:05:26.303Z,15.10
2023-05-13T12:07:58.856Z,15.20
2023-05-13T12:10:27.474Z,15.40
2023-05-13T12:12:55.830Z,15.70
2023-05-13T12:15:24.478Z,15.90
2023-05-13T12:17:52.913Z,16.00
2023-05-13T12:20:21.817Z,16.00
2023-05-13T12:22:49.938Z,16.00
2023-05-13T12:25:33.401Z,16.00
2023-05-13T12:28:29.335Z,15.90
2023-05-13T12:31:01.237Z,16.00
2023-05-13T12:33:30.666Z,16.10
2023-05-13T12:36:17.852Z,16.20
2023-05-13T12:39:15.249Z,16.30
2023-05-13T12:41:43.676Z,16.60
2023-05-13T12:44:11.791Z,17.00
2023-05-13T12:46:41.005Z,16.90
2023-05-13T12:49:10.526Z,16.50
2023-05-13T12:51:38.637Z,16.40
2023-05-13T12:54:06.776Z,16.30
2023-05-13T12:56:35.058Z,15.80
2023-05-13T12:59:03.147Z,15.60
2023-05-13T13:01:31.259Z,15.50
2023-05-13T13:03:59.515Z,15.30
2023-05-13T13:06:27.749Z,15.10
2023-05-13T13:08:55.859Z,15.10
2023-05-13T13:11:24.480Z,15.10
2023-05-13T13:13:52.525Z,15.20
2023-05-13T13:16:20.663Z,15.20
2023-05-13T13:18:48.915Z,15.20
2023-05-13T13:21:16.977Z,15.40
2023-05-13T13:23:45.312Z,15.50
2023-05-13T13:26:13.533Z,15.70
2023-05-13T13:28:41.626Z,15.80
2023-05-13T13:31:10.436Z,16.00
2023-05-13T13:33:38.494Z,16.00
2023-05-13T13:36:06.667Z,16.00
2023-05-13T13:38:34.784Z,16.10
2023-05-13T13:41:02.852Z,16.40
2023-05-13T13:43:30.924Z,16.70
2023-05-13T13:45:59.068Z,16.80
2023-05-13T13:48:27.247Z,16.80
2023-05-13T13:50:56.320Z,16.80
2023-05-13T13:53:24.583Z,17.00
2023-05-13T13:55:52.691Z,17.20
2023-05-13T13:58:20.773Z,17.40
2023-05-13T14:00:48.883Z,17.60
2023-05-13T14:03:16.987Z,17.60
2023-05-13T14:05:45.231Z,17.60
2023-05-13T14:08:13.294Z,17.60
2023-05-13T14:10:41.839Z,17.30
2023-05-13T14:13:09.980Z,17.30
2023-05-13T14:15:40.259Z,17.20
2023-05-13T14:18:11.171Z,17.10
2023-05-13T14:20:42.224Z,17.00
2023-05-13T14:23:13.432Z,16.90
2023-05-13T14:25:41.548Z,16.80
2023-05-13T14:28:09.581Z,16.70
2023-05-13T14:30:37.821Z,16.70
2023-05-13T14:33:05.967Z,16.60
2023-05-13T14:35:34.162Z,16.60
2023-05-13T14:38:02.301Z,16.50
2023-05-13T14:43:11.192Z,16.50
2023-05-13T14:45:39.328Z,16.30
2023-05-13T14:48:07.534Z,16.20
2023-05-13T14:50:37.025Z,16.30
2023-05-13T14:53:05.290Z,16.30
2023-05-13T14:55:33.413Z,16.20
2023-05-13T14:58:02.634Z,16.20
2023-05-13T15:00:31.146Z,16.30
2023-05-13T15:02:59.498Z,16.40
2023-05-13T15:05:27.974Z,16.50
2023-05-13T15:07:56.036Z,16.60
2023-05-13T15:10:24.273Z,16.70
2023-05-13T15:12:52.355Z,16.70
2023-05-13T15:15:20.470Z,16.70
2023-05-13T15:17:48.656Z,16.50
2023-05-13T15:20:16.844Z,16.40
2023-05-13T15:22:45.072Z,16.50
2023-05-13T15:25:13.193Z,16.60
2023-05-13T15:27:42.916Z,16.70
2023-05-13T15:30:11.811Z,16.70
2023-05-13T15:32:40.105Z,16.70
2023-05-13T15:35:08.406Z,16.70
2023-05-13T15:37:36.435Z,16.50
2023-05-13T15:40:04.610Z,16.60
2023-05-13T15:42:32.702Z,16.60
2023-05-13T15:45:00.817Z,16.70
2023-05-13T15:47:29.004Z,16.80
2023-05-13T15:49:57.162Z,16.90
2023-05-13T15:52:25.255Z,16.80
2023-05-13T15:54:53.396Z,16.80
2023-05-13T15:57:21.541Z,16.90
2023-05-13T15:59:52.402Z,17.00
2023-05-13T16:02:20.603Z,17.10
2023-05-13T16:04:49.520Z,17.00
2023-05-13T16:07:20.673Z,17.10
2023-05-13T16:09:48.749Z,17.10
2023-05-13T16:12:16.857Z,16.90
2023-05-13T16:14:44.924Z,16.80
2023-05-13T16:17:14.104Z,16.50
2023-05-13T16:19:42.553Z,16.30
2023-05-13T16:22:31.605Z,16.30
2023-05-13T16:25:01.200Z,16.20
2023-05-13T16:27:30.339Z,16.20
2023-05-13T16:30:02.238Z,16.20
2023-05-13T16:32:30.657Z,16.40
2023-05-13T16:34:58.985Z,16.60
2023-05-13T16:37:27.196Z,16.70
2023-05-13T16:39:55.339Z,16.70
2023-05-13T16:42:23.760Z,16.70
2023-05-13T16:44:51.980Z,16.70
2023-05-13T16:47:20.260Z,16.50
2023-05-13T16:49:51.142Z,16.40
2023-05-13T16:52:19.258Z,16.30
2023-05-13T16:54:47.340Z,16.30
2023-05-13T16:57:16.154Z,16.30
2023-05-13T16:59:44.612Z,16.20
2023-05-13T17:02:12.853Z,16.20
2023-05-13T17:04:40.964Z,16.10
2023-05-13T17:07:09.246Z,16.20
2023-05-13T17:09:39.162Z,16.20
2023-05-13T17:12:07.404Z,16.20
2023-05-13T17:14:36.566Z,16.20
2023-05-13T17:17:07.116Z,16.20
2023-05-13T17:19:35.368Z,16.20
2023-05-13T17:22:03.403Z,16.30
2023-05-13T17:24:32.985Z,16.30
2023-05-13T17:27:01.844Z,16.30
2023-05-13T17:29:30.263Z,16.30
2023-05-13T17:31:58.639Z,16.20
2023-05-13T17:34:27.061Z,16.20
2023-05-13T17:36:55.372Z,16.10
2023-05-13T17:39:23.626Z,16.00
2023-05-13T17:41:51.739Z,15.90
2023-05-13T17:44:21.300Z,15.80
2023-05-13T17:46:49.339Z,15.70
2023-05-13T17:49:17.430Z,15.60
2023-05-13T17:51:45.507Z,15.50
2023-05-13T17:54:13.692Z,15.50
2023-05-13T17:56:41.881Z,15.40
2023-05-13T17:59:09.949Z,15.40
2023-05-13T18:01:38.106Z,15.30
2023-05-13T18:04:06.282Z,15.10
2023-05-13T18:06:34.337Z,14.90
2023-05-13T18:09:02.400Z,14.80
2023-05-13T18:11:30.472Z,14.70
2023-05-13T18:13:58.618Z,14.70
2023-05-13T18:16:26.781Z,14.60
2023-05-13T18:18:54.924Z,14.50
2023-05-13T18:21:25.382Z,14.50
2023-05-13T18:23:53.418Z,14.40
2023-05-13T18:26:22.132Z,14.30
2023-05-13T18:28:50.246Z,14.30
2023-05-13T18:31:18.541Z,14.20
2023-05-13T18:33:46.834Z,14.10
2023-05-13T18:36:14.871Z,14.10
2023-05-13T18:38:42.892Z,14.10
2023-05-13T18:41:11.014Z,14.10
2023-05-13T18:43:39.924Z,14.00
2023-05-13T18:46:08.179Z,14.00
2023-05-13T18:48:36.394Z,13.90
2023-05-13T18:51:04.555Z,13.80
2023-05-13T18:53:32.841Z,13.70
2023-05-13T18:56:01.131Z,13.60
2023-05-13T18:58:29.826Z,13.50
2023-05-13T19:00:58.220Z,13.50
2023-05-13T19:03:28.209Z,13.50
2023-05-13T19:05:56.450Z,13.50
2023-05-13T19:08:24.506Z,13.40
2023-05-13T19:10:52.671Z,13.40
2023-05-13T19:13:22.409Z,13.40
2023-05-13T19:15:53.680Z,13.30
2023-05-13T19:18:25.527Z,13.30
2023-05-13T19:20:53.568Z,13.30
2023-05-13T19:23:21.601Z,13.20
2023-05-13T19:25:49.744Z,13.30
2023-05-13T19:28:18.211Z,13.20
2023-05-13T19:30:46.325Z,13.20
2023-05-13T19:33:14.430Z,13.20
2023-05-13T19:35:44.310Z,13.10
2023-05-13T19:38:12.385Z,12.90
2023-05-13T19:40:40.388Z,12.80
2023-05-13T19:43:08.711Z,12.70
2023-05-13T19:45:37.153Z,12.70
2023-05-13T19:48:05.251Z,12.80
2023-05-13T19:50:33.291Z,12.80
2023-05-13T19:53:01.353Z,12.80
2023-05-13T19:55:29.396Z,12.70
2023-05-13T19:57:57.601Z,12.70
2023-05-13T20:00:25.873Z,12.70
2023-05-13T20:02:54.186Z,12.60
2023-05-13T20:05:22.291Z,12.60
2023-05-13T20:07:50.321Z,12.60
2023-05-13T20:10:18.316Z,12.60
2023-05-13T20:12:46.401Z,12.60
2023-05-13T20:15:15.277Z,12.60
2023-05-13T20:17:44.311Z,12.60
2023-05-13T20:20:12.591Z,12.60
2023-05-13T20:22:40.677Z,12.60
2023-05-13T20:25:08.917Z,12.60
2023-05-13T20:27:36.996Z,12.60
2023-05-13T20:30:05.862Z,12.60
2023-05-13T20:32:33.979Z,12.50
2023-05-13T20:35:02.050Z,12.60
2023-05-13T20:37:30.725Z,12.50
2023-05-13T20:39:58.917Z,12.50
2023-05-13T20:42:27.299Z,12.50
2023-05-13T20:44:55.302Z,12.60
2023-05-13T20:47:23.618Z,12.60
2023-05-13T20:49:51.834Z,12.60
2023-05-13T20:52:19.884Z,12.50
2023-05-13T20:54:47.936Z,12.50
2023-05-13T20:57:15.937Z,12.50
2023-05-13T20:59:43.986Z,12.50
2023-05-13T21:02:12.087Z,12.40
2023-05-13T21:04:40.768Z,12.40
2023-05-13T21:07:08.940Z,12.40
2023-05-13T21:09:37.007Z,12.30
2023-05-13T21:12:05.185Z,12.20
2023-05-13T21:14:33.240Z,12.20
2023-05-13T21:17:04.433Z,12.10
2023-05-13T21:19:32.508Z,12.10
2023-05-13T21:22:06.448Z,12.10
2023-05-13T21:24:34.570Z,12.10
2023-05-13T21:27:02.567Z,12.00
2023-05-13T21:29:31.541Z,12.00
2023-05-13T21:31:59.540Z,11.80
2023-05-13T21:34:27.676Z,11.70
2023-05-13T21:36:55.788Z,11.60
2023-05-13T21:39:23.817Z,11.50
2023-05-13T21:41:51.844Z,11.50
2023-05-13T21:44:19.898Z,11.30
2023-05-13T21:46:47.914Z,11.20
2023-05-13T21:49:15.943Z,11.20
2023-05-13T21:51:43.965Z,11.00
2023-05-13T21:54:12.221Z,10.80
2023-05-13T21:56:40.218Z,10.70
2023-05-13T21:59:08.295Z,10.50
2023-05-13T22:01:36.373Z,10.50
2023-05-13T22:04:04.514Z,10.40
2023-05-13T22:06:33.052Z,10.40
2023-05-13T22:09:02.459Z,10.40
2023-05-13T22:11:30.525Z,10.40
2023-05-13T22:13:59.943Z,10.30
2023-05-13T22:16:28.062Z,10.40
2023-05-13T22:18:59.965Z,10.40
2023-05-13T22:21:28.265Z,10.50
2023-05-13T22:23:56.300Z,10.40
2023-05-13T22:26:24.301Z,10.30
2023-05-13T22:28:52.443Z,10.20
2023-05-13T22:31:20.850Z,10.20
2023-05-13T22:33:48.839Z,10.20
2023-05-13T22:36:16.866Z,10.10
2023-05-13T22:38:45.186Z,10.10
2023-05-13T22:41:13.465Z,10.10
2023-05-13T22:43:41.574Z,9.90
2023-05-13T22:46:09.611Z,9.80
2023-05-13T22:48:37.675Z,9.70
2023-05-13T22:51:05.746Z,9.60
2023-05-13T22:53:33.966Z,9.60
2023-05-13T22:56:02.198Z,9.60
2023-05-13T22:58:30.210Z,9.60
2023-05-13T23:00:58.211Z,9.60
2023-05-13T23:03:26.244Z,9.50
2023-05-13T23:05:56.193Z,9.50
2023-05-13T23:08:24.552Z,9.50
2023-05-13T23:10:52.729Z,9.60
2023-05-13T23:13:20.755Z,9.60
2023-05-13T23:15:48.843Z,9.50
2023-05-13T23:18:16.955Z,9.60
2023-05-13T23:20:57.388Z,9.60
2023-05-13T23:23:28.801Z,9.50
2023-05-13T23:25:57.415Z,9.30
2023-05-13T23:28:25.467Z,9.30
2023-05-13T23:30:54.354Z,9.30
2023-05-13T23:33:22.424Z,9.30
2023-05-13T23:35:57.545Z,9.40
2023-05-13T23:38:25.660Z,9.40
2023-05-13T23:40:54.125Z,9.30
2023-05-13T23:43:22.226Z,9.30
2023-05-13T23:45:50.233Z,9.30
2023-05-13T23:48:18.374Z,9.40
2023-05-13T23:50:46.367Z,9.40
2023-05-13T23:53:14.453Z,9.40
2023-05-13T23:55:42.452Z,9.40
2023-05-13T23:58:10.448Z,9.40
